sensor_id;sensor_type;location;lat;lon;timestamp;pressure;altitude;pressure_sealevel;temperature;humidity
54592;BME280;40488;48.558;18.150;2023-02-22T00:01:02;99559.94;;;10.00;74.85
54592;BME280;40488;48.558;18.150;2023-02-22T00:03:48;99565.03;;;10.00;75.03
54592;BME280;40488;48.558;18.150;2023-02-22T00:06:20;99563.31;;;9.99;74.96
54592;BME280;40488;48.558;18.150;2023-02-22T00:08:51;99560.78;;;10.00;74.98
54592;BME280;40488;48.558;18.150;2023-02-22T00:11:22;99565.88;;;10.02;74.61
54592;BME280;40488;48.558;18.150;2023-02-22T00:13:52;99559.09;;;9.99;74.93
54592;BME280;40488;48.558;18.150;2023-02-22T00:16:24;99562.47;;;9.98;74.73
54592;BME280;40488;48.558;18.150;2023-02-22T00:18:53;99565.03;;;10.00;74.78
54592;BME280;40488;48.558;18.150;2023-02-22T00:21:22;99564.19;;;9.98;74.95
54592;BME280;40488;48.558;18.150;2023-02-22T00:23:50;99566.72;;;9.99;74.95
54592;BME280;40488;48.558;18.150;2023-02-22T00:26:21;99569.28;;;9.99;75.11
54592;BME280;40488;48.558;18.150;2023-02-22T00:28:52;99558.22;;;9.99;75.23
54592;BME280;40488;48.558;18.150;2023-02-22T00:31:23;99558.22;;;9.99;75.02
54592;BME280;40488;48.558;18.150;2023-02-22T00:33:52;99559.09;;;9.98;75.14
54592;BME280;40488;48.558;18.150;2023-02-22T00:36:21;99566.75;;;9.98;74.79
54592;BME280;40488;48.558;18.150;2023-02-22T00:38:50;99563.31;;;9.99;75.17
54592;BME280;40488;48.558;18.150;2023-02-22T00:41:18;99564.19;;;9.99;75.17
54592;BME280;40488;48.558;18.150;2023-02-22T00:43:49;99563.31;;;9.99;74.75
54592;BME280;40488;48.558;18.150;2023-02-22T00:46:20;99563.31;;;9.99;74.63
54592;BME280;40488;48.558;18.150;2023-02-22T00:48:48;99565.03;;;10.00;74.97
54592;BME280;40488;48.558;18.150;2023-02-22T00:51:17;99562.47;;;9.98;75.06
54592;BME280;40488;48.558;18.150;2023-02-22T00:53:46;99559.94;;;10.00;75.12
54592;BME280;40488;48.558;18.150;2023-02-22T00:56:15;99560.78;;;10.00;75.40
54592;BME280;40488;48.558;18.150;2023-02-22T00:58:44;99565.03;;;10.00;75.50
54592;BME280;40488;48.558;18.150;2023-02-22T01:01:13;99565.03;;;10.00;75.12
54592;BME280;40488;48.558;18.150;2023-02-22T01:03:44;99561.66;;;9.98;75.38
54592;BME280;40488;48.558;18.150;2023-02-22T01:06:13;99566.75;;;9.98;75.37
54592;BME280;40488;48.558;18.150;2023-02-22T01:08:43;99563.31;;;9.96;75.67
54592;BME280;40488;48.558;18.150;2023-02-22T01:11:15;99559.94;;;9.97;75.56
54592;BME280;40488;48.558;18.150;2023-02-22T01:13:44;99557.38;;;9.94;75.85
54592;BME280;40488;48.558;18.150;2023-02-22T01:16:13;99563.34;;;9.93;76.54
54592;BME280;40488;48.558;18.150;2023-02-22T01:18:43;99554.84;;;9.91;76.24
54592;BME280;40488;48.558;18.150;2023-02-22T01:21:12;99560.78;;;9.88;75.98
54592;BME280;40488;48.558;18.150;2023-02-22T01:23:43;99560.78;;;9.87;76.22
54592;BME280;40488;48.558;18.150;2023-02-22T01:26:13;99561.63;;;9.83;76.86
54592;BME280;40488;48.558;18.150;2023-02-22T01:28:42;99561.63;;;9.80;76.63
54592;BME280;40488;48.558;18.150;2023-02-22T01:31:11;99560.78;;;9.79;76.62
54592;BME280;40488;48.558;18.150;2023-02-22T01:33:44;99549.75;;;9.76;76.99
54592;BME280;40488;48.558;18.150;2023-02-22T01:36:13;99549.75;;;9.76;77.17
54592;BME280;40488;48.558;18.150;2023-02-22T01:38:43;99563.31;;;9.75;77.19
54592;BME280;40488;48.558;18.150;2023-02-22T01:41:12;99556.53;;;9.71;77.23
54592;BME280;40488;48.558;18.150;2023-02-22T01:43:45;99551.44;;;9.62;76.91
54592;BME280;40488;48.558;18.150;2023-02-22T01:46:22;99558.19;;;9.55;77.26
54592;BME280;40488;48.558;18.150;2023-02-22T01:48:57;99557.34;;;9.49;76.93
54592;BME280;40488;48.558;18.150;2023-02-22T01:51:30;99556.50;;;9.37;76.99
54592;BME280;40488;48.558;18.150;2023-02-22T01:54:06;99548.81;;;9.27;77.53
54592;BME280;40488;48.558;18.150;2023-02-22T01:56:45;99557.28;;;9.17;77.82
54592;BME280;40488;48.558;18.150;2023-02-22T01:59:20;99558.09;;;9.05;77.27
54592;BME280;40488;48.558;18.150;2023-02-22T02:01:49;99552.13;;;8.96;77.76
54592;BME280;40488;48.558;18.150;2023-02-22T02:04:22;99559.75;;;8.91;77.48
54592;BME280;40488;48.558;18.150;2023-02-22T02:06:58;99568.22;;;8.87;78.88
54592;BME280;40488;48.558;18.150;2023-02-22T02:09:33;99563.09;;;8.81;78.57
54592;BME280;40488;48.558;18.150;2023-02-22T02:12:08;99567.31;;;8.79;78.88
54592;BME280;40488;48.558;18.150;2023-02-22T02:14:39;99573.28;;;8.78;79.46
54592;BME280;40488;48.558;18.150;2023-02-22T02:17:10;99573.25;;;8.75;79.22
54592;BME280;40488;48.558;18.150;2023-02-22T02:19:47;99572.41;;;8.81;79.34
54592;BME280;40488;48.558;18.150;2023-02-22T02:22:29;99572.47;;;8.93;80.20
54592;BME280;40488;48.558;18.150;2023-02-22T02:25:27;99569.94;;;9.00;80.00
54592;BME280;40488;48.558;18.150;2023-02-22T02:28:25;99566.56;;;9.01;80.42
54592;BME280;40488;48.558;18.150;2023-02-22T02:33:52;99562.31;;;8.99;80.72
54592;BME280;40488;48.558;18.150;2023-02-22T02:36:29;99556.38;;;8.98;80.42
54592;BME280;40488;48.558;18.150;2023-02-22T02:39:06;99558.06;;;8.96;80.75
54592;BME280;40488;48.558;18.150;2023-02-22T02:41:41;99547.88;;;8.96;80.49
54592;BME280;40488;48.558;18.150;2023-02-22T02:44:16;99551.28;;;8.98;80.88
54592;BME280;40488;48.558;18.150;2023-02-22T02:46:55;99549.59;;;9.00;80.48
54592;BME280;40488;48.558;18.150;2023-02-22T02:49:32;99556.41;;;9.04;80.50
54592;BME280;40488;48.558;18.150;2023-02-22T02:52:06;99556.41;;;9.04;80.67
54592;BME280;40488;48.558;18.150;2023-02-22T02:54:39;99553.84;;;9.01;80.99
54592;BME280;40488;48.558;18.150;2023-02-22T02:57:09;99552.13;;;8.99;81.37
54592;BME280;40488;48.558;18.150;2023-02-22T02:59:37;99546.16;;;8.95;81.01
54592;BME280;40488;48.558;18.150;2023-02-22T03:02:18;99554.66;;;8.91;80.96
54592;BME280;40488;48.558;18.150;2023-02-22T03:05:00;99544.44;;;8.87;80.88
54592;BME280;40488;48.558;18.150;2023-02-22T03:07:50;99541.91;;;8.82;81.23
54592;BME280;40488;48.558;18.150;2023-02-22T03:10:42;99546.97;;;8.77;81.69
54592;BME280;40488;48.558;18.150;2023-02-22T03:13:18;99551.19;;;8.74;80.89
54592;BME280;40488;48.558;18.150;2023-02-22T03:15:54;99552.84;;;8.69;81.64
54592;BME280;40488;48.558;18.150;2023-02-22T03:18:34;99554.53;;;8.62;80.68
54592;BME280;40488;48.558;18.150;2023-02-22T03:21:18;99558.75;;;8.59;81.05
54592;BME280;40488;48.558;18.150;2023-02-22T03:23:58;99562.97;;;8.54;81.60
54592;BME280;40488;48.558;18.150;2023-02-22T03:26:32;99561.22;;;8.50;81.18
54592;BME280;40488;48.558;18.150;2023-02-22T03:29:04;99559.53;;;8.46;81.55
54592;BME280;40488;48.558;18.150;2023-02-22T03:31:39;99558.63;;;8.42;81.97
54592;BME280;40488;48.558;18.150;2023-02-22T03:34:12;99571.34;;;8.38;81.62
54592;BME280;40488;48.558;18.150;2023-02-22T03:36:49;99561.16;;;8.35;82.24
54592;BME280;40488;48.558;18.150;2023-02-22T03:39:24;99562.81;;;8.33;81.70
54592;BME280;40488;48.558;18.150;2023-02-22T03:42:03;99559.41;;;8.31;81.68
54592;BME280;40488;48.558;18.150;2023-02-22T03:44:38;99563.59;;;8.26;81.56
54592;BME280;40488;48.558;18.150;2023-02-22T03:47:11;99557.66;;;8.24;81.03
54592;BME280;40488;48.558;18.150;2023-02-22T03:49:45;99557.63;;;8.18;82.03
54592;BME280;40488;48.558;18.150;2023-02-22T03:52:17;99562.66;;;8.11;81.92
54592;BME280;40488;48.558;18.150;2023-02-22T03:54:46;99565.97;;;8.01;81.88
54592;BME280;40488;48.558;18.150;2023-02-22T03:57:19;99564.25;;;7.97;81.88
54592;BME280;40488;48.558;18.150;2023-02-22T04:00:00;99565.03;;;7.92;81.56
54592;BME280;40488;48.558;18.150;2023-02-22T04:02:39;99559.13;;;7.91;81.50
54592;BME280;40488;48.558;18.150;2023-02-22T04:05:12;99562.47;;;7.84;81.47
54592;BME280;40488;48.558;18.150;2023-02-22T04:07:43;99564.97;;;7.83;82.59
54592;BME280;40488;48.558;18.150;2023-02-22T04:10:14;99569.09;;;7.70;82.39
54592;BME280;40488;48.558;18.150;2023-02-22T04:12:43;99574.16;;;7.67;81.96
54592;BME280;40488;48.558;18.150;2023-02-22T04:15:16;99576.63;;;7.61;81.94
54592;BME280;40488;48.558;18.150;2023-02-22T04:17:48;99584.19;;;7.55;81.89
54592;BME280;40488;48.558;18.150;2023-02-22T04:20:18;99585.88;;;7.53;81.86
54592;BME280;40488;48.558;18.150;2023-02-22T04:22:57;99585.00;;;7.50;81.65
54592;BME280;40488;48.558;18.150;2023-02-22T04:25:27;99573.03;;;7.38;82.47
54592;BME280;40488;48.558;18.150;2023-02-22T04:27:56;99580.59;;;7.35;82.00
54592;BME280;40488;48.558;18.150;2023-02-22T04:30:41;99580.56;;;7.29;82.38
54592;BME280;40488;48.558;18.150;2023-02-22T04:33:13;99579.69;;;7.27;82.28
54592;BME280;40488;48.558;18.150;2023-02-22T04:35:43;99574.56;;;7.24;82.45
54592;BME280;40488;48.558;18.150;2023-02-22T04:38:14;99582.16;;;7.21;81.91
54592;BME280;40488;48.558;18.150;2023-02-22T04:40:43;99578.66;;;7.11;82.30
54592;BME280;40488;48.558;18.150;2023-02-22T04:43:13;99588.66;;;6.98;82.56
54592;BME280;40488;48.558;18.150;2023-02-22T04:45:42;99588.56;;;6.92;82.60
54592;BME280;40488;48.558;18.150;2023-02-22T04:48:11;99586.81;;;6.86;82.73
54592;BME280;40488;48.558;18.150;2023-02-22T04:50:40;99587.69;;;6.88;82.72
54592;BME280;40488;48.558;18.150;2023-02-22T04:53:09;99598.66;;;6.89;82.92
54592;BME280;40488;48.558;18.150;2023-02-22T04:55:39;99598.66;;;6.86;83.42
54592;BME280;40488;48.558;18.150;2023-02-22T04:58:10;99596.94;;;6.85;83.35
54592;BME280;40488;48.558;18.150;2023-02-22T05:00:39;99595.25;;;6.87;83.57
54592;BME280;40488;48.558;18.150;2023-02-22T05:03:08;99597.78;;;6.84;83.61
54592;BME280;40488;48.558;18.150;2023-02-22T05:05:37;99596.03;;;6.80;84.21
54592;BME280;40488;48.558;18.150;2023-02-22T05:08:05;99601.09;;;6.80;83.83
54592;BME280;40488;48.558;18.150;2023-02-22T05:10:34;99595.09;;;6.74;84.41
54592;BME280;40488;48.558;18.150;2023-02-22T05:13:05;99603.44;;;6.64;83.72
54592;BME280;40488;48.558;18.150;2023-02-22T05:15:33;99599.16;;;6.60;83.77
54592;BME280;40488;48.558;18.150;2023-02-22T05:18:02;99596.50;;;6.51;83.88
54592;BME280;40488;48.558;18.150;2023-02-22T05:20:33;99600.63;;;6.45;83.42
54592;BME280;40488;48.558;18.150;2023-02-22T05:23:03;99603.91;;;6.39;83.73
54592;BME280;40488;48.558;18.150;2023-02-22T05:25:32;99601.31;;;6.33;83.65
54592;BME280;40488;48.558;18.150;2023-02-22T05:28:03;99601.22;;;6.29;83.98
54592;BME280;40488;48.558;18.150;2023-02-22T05:30:35;99608.78;;;6.26;84.07
54592;BME280;40488;48.558;18.150;2023-02-22T05:33:07;99599.34;;;6.17;83.94
54592;BME280;40488;48.558;18.150;2023-02-22T05:35:36;99609.47;;;6.14;83.96
54592;BME280;40488;48.558;18.150;2023-02-22T05:38:05;99600.13;;;6.12;84.40
54592;BME280;40488;48.558;18.150;2023-02-22T05:40:34;99610.91;;;6.00;84.23
54592;BME280;40488;48.558;18.150;2023-02-22T05:43:03;99604.88;;;5.93;84.08
54592;BME280;40488;48.558;18.150;2023-02-22T05:45:31;99612.63;;;6.01;84.13
54592;BME280;40488;48.558;18.150;2023-02-22T05:48:02;99604.16;;;5.99;84.19
54592;BME280;40488;48.558;18.150;2023-02-22T05:50:31;99614.28;;;5.99;84.35
54592;BME280;40488;48.558;18.150;2023-02-22T05:53:01;99620.16;;;5.96;84.68
54592;BME280;40488;48.558;18.150;2023-02-22T05:55:31;99625.88;;;5.88;84.17
54592;BME280;40488;48.558;18.150;2023-02-22T05:58:00;99632.56;;;5.83;84.08
54592;BME280;40488;48.558;18.150;2023-02-22T06:00:32;99631.66;;;5.81;84.42
54592;BME280;40488;48.558;18.150;2023-02-22T06:03:03;99629.19;;;5.84;84.47
54592;BME280;40488;48.558;18.150;2023-02-22T06:05:33;99636.88;;;5.88;84.78
54592;BME280;40488;48.558;18.150;2023-02-22T06:08:02;99631.88;;;5.93;85.11
54592;BME280;40488;48.558;18.150;2023-02-22T06:10:31;99633.69;;;5.98;85.69
54592;BME280;40488;48.558;18.150;2023-02-22T06:13:01;99639.66;;;6.02;85.11
54592;BME280;40488;48.558;18.150;2023-02-22T06:15:31;99643.06;;;6.04;85.56
54592;BME280;40488;48.558;18.150;2023-02-22T06:18:01;99643.16;;;6.08;85.70
54592;BME280;40488;48.558;18.150;2023-02-22T06:20:30;99650.81;;;6.13;85.52
54592;BME280;40488;48.558;18.150;2023-02-22T06:22:59;99653.44;;;6.19;86.04
54592;BME280;40488;48.558;18.150;2023-02-22T06:25:29;99656.09;;;6.27;86.20
54592;BME280;40488;48.558;18.150;2023-02-22T06:27:59;99654.53;;;6.33;86.39
54592;BME280;40488;48.558;18.150;2023-02-22T06:30:29;99660.41;;;6.32;86.27
54592;BME280;40488;48.558;18.150;2023-02-22T06:32:58;99660.34;;;6.29;85.92
54592;BME280;40488;48.558;18.150;2023-02-22T06:35:28;99661.22;;;6.30;86.54
54592;BME280;40488;48.558;18.150;2023-02-22T06:37:57;99664.66;;;6.33;86.57
54592;BME280;40488;48.558;18.150;2023-02-22T06:40:26;99670.69;;;6.41;86.24
54592;BME280;40488;48.558;18.150;2023-02-22T06:42:55;99679.28;;;6.49;86.93
54592;BME280;40488;48.558;18.150;2023-02-22T06:45:24;99670.06;;;6.56;87.20
54592;BME280;40488;48.558;18.150;2023-02-22T06:47:53;99678.63;;;6.62;86.51
54592;BME280;40488;48.558;18.150;2023-02-22T06:50:24;99677.97;;;6.75;87.17
54592;BME280;40488;48.558;18.150;2023-02-22T06:52:57;99683.22;;;6.88;87.38
54592;BME280;40488;48.558;18.150;2023-02-22T06:55:27;99683.41;;;7.00;87.47
54592;BME280;40488;48.558;18.150;2023-02-22T06:57:57;99692.09;;;7.17;87.26
54592;BME280;40488;48.558;18.150;2023-02-22T07:00:27;99684.63;;;7.30;87.20
54592;BME280;40488;48.558;18.150;2023-02-22T07:02:57;99685.59;;;7.40;87.28
54592;BME280;40488;48.558;18.150;2023-02-22T07:05:26;99691.63;;;7.50;87.80
54592;BME280;40488;48.558;18.150;2023-02-22T07:08:02;99682.44;;;7.59;87.03
54592;BME280;40488;48.558;18.150;2023-02-22T07:10:32;99691.00;;;7.67;87.81
54592;BME280;40488;48.558;18.150;2023-02-22T07:13:02;99689.38;;;7.75;86.68
54592;BME280;40488;48.558;18.150;2023-02-22T07:15:33;99687.72;;;7.77;86.71
54592;BME280;40488;48.558;18.150;2023-02-22T07:18:02;99700.53;;;7.86;87.21
54592;BME280;40488;48.558;18.150;2023-02-22T07:20:32;99692.94;;;7.92;86.98
54592;BME280;40488;48.558;18.150;2023-02-22T07:23:02;99687.94;;;8.01;86.87
54592;BME280;40488;48.558;18.150;2023-02-22T07:25:31;99689.69;;;8.05;86.73
54592;BME280;40488;48.558;18.150;2023-02-22T07:28:00;99689.75;;;8.11;86.35
54592;BME280;40488;48.558;18.150;2023-02-22T07:30:31;99678.78;;;8.17;86.18
54592;BME280;40488;48.558;18.150;2023-02-22T07:33:01;99679.69;;;8.24;86.08
54592;BME280;40488;48.558;18.150;2023-02-22T07:35:32;99681.47;;;8.31;85.92
54592;BME280;40488;48.558;18.150;2023-02-22T07:38:06;99680.66;;;8.36;85.65
54592;BME280;40488;48.558;18.150;2023-02-22T07:40:36;99683.28;;;8.44;85.17
54592;BME280;40488;48.558;18.150;2023-02-22T07:43:13;99679.94;;;8.51;85.82
54592;BME280;40488;48.558;18.150;2023-02-22T07:45:43;99674.88;;;8.54;86.19
54592;BME280;40488;48.558;18.150;2023-02-22T07:48:12;99675.78;;;8.60;85.49
54592;BME280;40488;48.558;18.150;2023-02-22T07:50:43;99685.16;;;8.69;85.16
54592;BME280;40488;48.558;18.150;2023-02-22T07:53:15;99682.66;;;8.76;85.17
54592;BME280;40488;48.558;18.150;2023-02-22T07:55:45;99674.22;;;8.84;85.27
54592;BME280;40488;48.558;18.150;2023-02-22T07:58:20;99675.97;;;8.89;85.45
54592;BME280;40488;48.558;18.150;2023-02-22T08:00:50;99675.16;;;8.96;85.25
54592;BME280;40488;48.558;18.150;2023-02-22T08:03:20;99676.03;;;9.03;84.91
54592;BME280;40488;48.558;18.150;2023-02-22T08:05:51;99677.75;;;9.10;84.05
54592;BME280;40488;48.558;18.150;2023-02-22T08:08:22;99673.56;;;9.16;84.62
54592;BME280;40488;48.558;18.150;2023-02-22T08:10:52;99670.22;;;9.29;84.25
54592;BME280;40488;48.558;18.150;2023-02-22T08:13:21;99673.66;;;9.40;83.70
54592;BME280;40488;48.558;18.150;2023-02-22T08:15:51;99680.47;;;9.49;83.31
54592;BME280;40488;48.558;18.150;2023-02-22T08:18:21;99672.88;;;9.63;83.78
54592;BME280;40488;48.558;18.150;2023-02-22T08:20:50;99680.53;;;9.60;83.31
54592;BME280;40488;48.558;18.150;2023-02-22T08:23:22;99680.50;;;9.57;83.16
54592;BME280;40488;48.558;18.150;2023-02-22T08:25:53;99677.13;;;9.61;82.04
54592;BME280;40488;48.558;18.150;2023-02-22T08:28:23;99685.66;;;9.69;82.45
54592;BME280;40488;48.558;18.150;2023-02-22T08:30:52;99679.69;;;9.74;81.56
54592;BME280;40488;48.558;18.150;2023-02-22T08:33:21;99675.44;;;9.75;81.24
54592;BME280;40488;48.558;18.150;2023-02-22T08:35:51;99681.41;;;9.75;81.14
54592;BME280;40488;48.558;18.150;2023-02-22T08:38:23;99675.44;;;9.75;80.90
54592;BME280;40488;48.558;18.150;2023-02-22T08:40:52;99674.63;;;9.79;79.48
54592;BME280;40488;48.558;18.150;2023-02-22T08:43:21;99681.44;;;9.86;79.76
54592;BME280;40488;48.558;18.150;2023-02-22T08:45:51;99678.03;;;9.91;78.95
54592;BME280;40488;48.558;18.150;2023-02-22T08:48:23;99672.09;;;9.79;78.58
54592;BME280;40488;48.558;18.150;2023-02-22T08:50:52;99670.38;;;9.78;77.50
54592;BME280;40488;48.558;18.150;2023-02-22T08:53:22;99677.19;;;9.85;78.11
54592;BME280;40488;48.558;18.150;2023-02-22T08:55:52;99670.38;;;9.81;77.43
54592;BME280;40488;48.558;18.150;2023-02-22T08:58:20;99678.88;;;9.83;76.29
54592;BME280;40488;48.558;18.150;2023-02-22T09:00:50;99677.19;;;9.94;76.41
54592;BME280;40488;48.558;18.150;2023-02-22T09:03:19;99677.22;;;10.00;76.10
54592;BME280;40488;48.558;18.150;2023-02-22T09:05:47;99673.81;;;10.04;75.87
54592;BME280;40488;48.558;18.150;2023-02-22T09:08:16;99675.50;;;10.08;75.72
54592;BME280;40488;48.558;18.150;2023-02-22T09:10:49;99682.38;;;10.12;75.15
54592;BME280;40488;48.558;18.150;2023-02-22T09:13:18;99678.97;;;10.16;75.28
54592;BME280;40488;48.558;18.150;2023-02-22T09:15:46;99685.75;;;10.23;75.02
54592;BME280;40488;48.558;18.150;2023-02-22T09:18:15;99682.38;;;10.30;74.26
54592;BME280;40488;48.558;18.150;2023-02-22T09:20:44;99686.63;;;10.31;74.36
54592;BME280;40488;48.558;18.150;2023-02-22T09:23:13;99681.53;;;10.31;73.46
54592;BME280;40488;48.558;18.150;2023-02-22T09:25:42;99690.00;;;10.39;73.25
54592;BME280;40488;48.558;18.150;2023-02-22T09:28:12;99685.78;;;10.41;72.92
54592;BME280;40488;48.558;18.150;2023-02-22T09:30:41;99682.38;;;10.42;72.21
54592;BME280;40488;48.558;18.150;2023-02-22T09:33:12;99693.44;;;10.34;71.92
54592;BME280;40488;48.558;18.150;2023-02-22T09:35:43;99684.91;;;10.26;71.81
54592;BME280;40488;48.558;18.150;2023-02-22T09:38:15;99684.06;;;10.25;71.88
54592;BME280;40488;48.558;18.150;2023-02-22T09:40:48;99675.56;;;10.20;72.33
54592;BME280;40488;48.558;18.150;2023-02-22T09:43:29;99679.81;;;10.20;72.72
54592;BME280;40488;48.558;18.150;2023-02-22T09:46:12;99675.56;;;10.20;72.73
54592;BME280;40488;48.558;18.150;2023-02-22T09:48:55;99681.53;;;10.27;72.81
54592;BME280;40488;48.558;18.150;2023-02-22T09:51:28;99685.78;;;10.35;72.84
54592;BME280;40488;48.558;18.150;2023-02-22T09:54:03;99680.66;;;10.44;72.34
54592;BME280;40488;48.558;18.150;2023-02-22T09:56:34;99681.53;;;10.55;72.47
54592;BME280;40488;48.558;18.150;2023-02-22T09:59:06;99684.91;;;10.65;72.51
54592;BME280;40488;48.558;18.150;2023-02-22T10:01:38;99678.94;;;10.73;72.45
54592;BME280;40488;48.558;18.150;2023-02-22T10:04:14;99682.34;;;10.82;72.16
54592;BME280;40488;48.558;18.150;2023-02-22T10:06:58;99674.66;;;10.83;71.94
54592;BME280;40488;48.558;18.150;2023-02-22T10:09:34;99668.69;;;10.86;71.51
54592;BME280;40488;48.558;18.150;2023-02-22T10:12:12;99668.72;;;10.89;71.38
54592;BME280;40488;48.558;18.150;2023-02-22T10:17:45;99663.59;;;10.92;70.96
54592;BME280;40488;48.558;18.150;2023-02-22T10:20:24;99663.56;;;10.99;71.12
54592;BME280;40488;48.558;18.150;2023-02-22T10:23:06;99660.13;;;11.08;70.89
54592;BME280;40488;48.558;18.150;2023-02-22T10:25:38;99670.34;;;11.08;70.81
54592;BME280;40488;48.558;18.150;2023-02-22T10:28:16;99664.41;;;11.07;70.33
54592;BME280;40488;48.558;18.150;2023-02-22T10:30:50;99662.69;;;11.05;70.16
54592;BME280;40488;48.558;18.150;2023-02-22T10:33:25;99662.72;;;10.96;70.01
54592;BME280;40488;48.558;18.150;2023-02-22T10:35:55;99664.41;;;10.97;69.77
54592;BME280;40488;48.558;18.150;2023-02-22T10:38:25;99665.25;;;11.11;69.87
54592;BME280;40488;48.558;18.150;2023-02-22T10:40:56;99658.38;;;11.19;69.81
54592;BME280;40488;48.558;18.150;2023-02-22T10:43:27;99666.88;;;11.24;69.70
54592;BME280;40488;48.558;18.150;2023-02-22T10:46:00;99663.44;;;11.31;69.89
54592;BME280;40488;48.558;18.150;2023-02-22T10:48:31;99660.03;;;11.35;69.81
54592;BME280;40488;48.558;18.150;2023-02-22T10:51:05;99660.91;;;11.34;69.80
54592;BME280;40488;48.558;18.150;2023-02-22T10:53:35;99655.75;;;11.35;70.23
54592;BME280;40488;48.558;18.150;2023-02-22T10:56:07;99659.19;;;11.34;70.10
54592;BME280;40488;48.558;18.150;2023-02-22T10:58:46;99659.19;;;11.36;69.91
54592;BME280;40488;48.558;18.150;2023-02-22T11:01:20;99645.56;;;11.37;69.68
54592;BME280;40488;48.558;18.150;2023-02-22T11:03:58;99645.53;;;11.41;69.57
54592;BME280;40488;48.558;18.150;2023-02-22T11:06:28;99646.34;;;11.45;69.51
54592;BME280;40488;48.558;18.150;2023-02-22T11:09:09;99642.94;;;11.46;69.07
54592;BME280;40488;48.558;18.150;2023-02-22T11:11:40;99631.00;;;11.48;68.98
54592;BME280;40488;48.558;18.150;2023-02-22T11:14:10;99635.25;;;11.48;68.76
54592;BME280;40488;48.558;18.150;2023-02-22T11:16:43;99632.69;;;11.52;68.78
54592;BME280;40488;48.558;18.150;2023-02-22T11:19:19;99624.13;;;11.59;68.39
54592;BME280;40488;48.558;18.150;2023-02-22T11:21:52;99620.75;;;11.54;67.95
54592;BME280;40488;48.558;18.150;2023-02-22T11:24:23;99622.50;;;11.49;67.68
54592;BME280;40488;48.558;18.150;2023-02-22T11:27:00;99624.16;;;11.56;67.29
54592;BME280;40488;48.558;18.150;2023-02-22T11:29:31;99619.91;;;11.52;67.23
54592;BME280;40488;48.558;18.150;2023-02-22T11:32:18;99619.94;;;11.48;66.84
54592;BME280;40488;48.558;18.150;2023-02-22T11:34:49;99614.81;;;11.48;66.82
54592;BME280;40488;48.558;18.150;2023-02-22T11:37:34;99602.84;;;11.56;66.35
54592;BME280;40488;48.558;18.150;2023-02-22T11:40:13;99613.06;;;11.60;66.51
54592;BME280;40488;48.558;18.150;2023-02-22T11:43:04;99610.47;;;11.63;66.34
54592;BME280;40488;48.558;18.150;2023-02-22T11:45:35;99604.47;;;11.72;66.52
54592;BME280;40488;48.558;18.150;2023-02-22T11:48:18;99604.41;;;11.82;66.37
54592;BME280;40488;48.558;18.150;2023-02-22T11:51:00;99601.88;;;11.76;65.92
54592;BME280;40488;48.558;18.150;2023-02-22T11:53:44;99601.03;;;11.77;65.56
54592;BME280;40488;48.558;18.150;2023-02-22T11:56:21;99592.56;;;11.62;65.05
54592;BME280;40488;48.558;18.150;2023-02-22T11:59:14;99594.34;;;11.52;64.77
54592;BME280;40488;48.558;18.150;2023-02-22T12:01:51;99596.88;;;11.55;64.75
54592;BME280;40488;48.558;18.150;2023-02-22T12:07:34;99586.66;;;11.55;64.22
54592;BME280;40488;48.558;18.150;2023-02-22T12:10:15;99589.22;;;11.58;64.54
54592;BME280;40488;48.558;18.150;2023-02-22T12:13:02;99590.88;;;11.59;64.48
54592;BME280;40488;48.558;18.150;2023-02-22T12:15:40;99587.44;;;11.65;64.59
54592;BME280;40488;48.558;18.150;2023-02-22T12:18:16;99588.28;;;11.71;64.59
54592;BME280;40488;48.558;18.150;2023-02-22T12:20:52;99589.94;;;11.81;64.86
54592;BME280;40488;48.558;18.150;2023-02-22T12:23:29;99587.31;;;11.89;65.25
54592;BME280;40488;48.558;18.150;2023-02-22T12:26:03;99583.13;;;11.80;64.88
54592;BME280;40488;48.558;18.150;2023-02-22T12:28:35;99581.41;;;11.79;64.78
54592;BME280;40488;48.558;18.150;2023-02-22T12:31:14;99586.59;;;11.73;64.68
54592;BME280;40488;48.558;18.150;2023-02-22T12:33:48;99574.66;;;11.75;64.74
54592;BME280;40488;48.558;18.150;2023-02-22T12:36:24;99576.31;;;11.76;64.47
54592;BME280;40488;48.558;18.150;2023-02-22T12:39:03;99566.94;;;11.77;64.44
54592;BME280;40488;48.558;18.150;2023-02-22T12:41:39;99572.91;;;11.79;64.43
54592;BME280;40488;48.558;18.150;2023-02-22T12:44:16;99567.78;;;11.80;64.12
54592;BME280;40488;48.558;18.150;2023-02-22T12:46:49;99565.22;;;11.79;63.88
54592;BME280;40488;48.558;18.150;2023-02-22T12:49:25;99566.09;;;11.76;63.16
54592;BME280;40488;48.558;18.150;2023-02-22T12:51:59;99556.72;;;11.77;63.15
54592;BME280;40488;48.558;18.150;2023-02-22T12:54:53;99561.03;;;11.73;63.05
54592;BME280;40488;48.558;18.150;2023-02-22T12:57:29;99559.25;;;11.80;63.01
54592;BME280;40488;48.558;18.150;2023-02-22T13:00:04;99565.22;;;11.82;62.64
54592;BME280;40488;48.558;18.150;2023-02-22T13:02:38;99557.50;;;11.86;62.33
54592;BME280;40488;48.558;18.150;2023-02-22T13:05:13;99553.22;;;11.88;62.57
54592;BME280;40488;48.558;18.150;2023-02-22T13:07:50;99557.50;;;11.86;62.65
54592;BME280;40488;48.558;18.150;2023-02-22T13:10:43;99559.22;;;11.87;62.50
54592;BME280;40488;48.558;18.150;2023-02-22T13:13:24;99547.25;;;11.92;62.58
54592;BME280;40488;48.558;18.150;2023-02-22T13:16:05;99552.28;;;11.98;62.38
54592;BME280;40488;48.558;18.150;2023-02-22T13:18:48;99557.41;;;11.95;62.05
54592;BME280;40488;48.558;18.150;2023-02-22T13:21:27;99554.88;;;11.97;61.93
54592;BME280;40488;48.558;18.150;2023-02-22T13:24:01;99548.91;;;11.96;61.75
54592;BME280;40488;48.558;18.150;2023-02-22T13:26:40;99547.25;;;11.89;61.85
54592;BME280;40488;48.558;18.150;2023-02-22T13:29:15;99543.88;;;11.84;61.69
54592;BME280;40488;48.558;18.150;2023-02-22T13:31:58;99552.44;;;11.80;61.67
54592;BME280;40488;48.558;18.150;2023-02-22T13:34:45;99546.47;;;11.80;61.66
54592;BME280;40488;48.558;18.150;2023-02-22T13:37:39;99553.25;;;11.84;62.09